Time;durP1;ratioP1;P1;durP2;ratioP2;P2;SDS_P1;SDS_P2;PMS_P1;PMS_P2;Temp;Humidity;BMP_temperature;BMP_pressure;BME280_temperature;BME280_humidity;BME280_pressure;Samples;Min_cycle;Max_cycle;Signal;HPM_P1;HPM_P2
2023/02/28 00:00:45;;;;;;;17.48;9.95;;;21.70;99.90;;;;;;5033556;28;20045;-56
2023/02/28 00:03:11;;;;;;;16.42;11.20;;;21.70;99.90;;;;;;5033640;28;20028;-56
2023/02/28 00:05:37;;;;;;;15.88;9.68;;;21.70;99.90;;;;;;5033510;28;20078;-56
2023/02/28 00:08:02;;;;;;;15.30;10.45;;;21.70;99.90;;;;;;5033020;28;20022;-57
2023/02/28 00:10:30;;;;;;;16.52;10.57;;;21.70;99.90;;;;;;5032864;28;20034;-56
2023/02/28 00:12:59;;;;;;;17.30;10.63;;;21.70;99.90;;;;;;5033411;28;20025;-56
2023/02/28 00:15:26;;;;;;;17.08;10.70;;;21.60;99.90;;;;;;5033471;28;20108;-56
2023/02/28 00:17:51;;;;;;;16.20;10.73;;;21.60;99.90;;;;;;5033516;28;20232;-56
2023/02/28 00:20:18;;;;;;;15.50;10.30;;;21.60;99.90;;;;;;5033454;28;20515;-55
2023/02/28 00:22:47;;;;;;;15.80;11.18;;;21.60;99.90;;;;;;5033312;28;20026;-56
2023/02/28 00:25:15;;;;;;;16.60;10.75;;;21.60;99.90;;;;;;5033325;28;20593;-56
2023/02/28 00:27:41;;;;;;;17.45;10.45;;;21.60;99.90;;;;;;5033052;28;20036;-55
2023/02/28 00:30:11;;;;;;;16.08;11.18;;;21.60;99.90;;;;;;5033187;28;20032;-56
2023/02/28 00:32:37;;;;;;;15.93;10.50;;;21.50;99.90;;;;;;5032081;28;20083;-56
2023/02/28 00:35:04;;;;;;;18.27;11.10;;;21.50;99.90;;;;;;5033094;28;20040;-54
2023/02/28 00:37:30;;;;;;;16.55;11.00;;;21.50;99.90;;;;;;5033013;28;20475;-55
2023/02/28 00:39:56;;;;;;;17.08;11.07;;;21.50;99.90;;;;;;5032873;28;20026;-55
2023/02/28 00:42:22;;;;;;;17.23;11.05;;;21.50;99.90;;;;;;5033175;28;20487;-55
2023/02/28 00:44:48;;;;;;;16.55;11.00;;;21.50;99.90;;;;;;5015167;28;20099;-56
2023/02/28 00:47:14;;;;;;;20.50;12.00;;;21.40;99.90;;;;;;5032839;28;20435;-56
2023/02/28 00:49:39;;;;;;;21.17;11.98;;;21.40;99.90;;;;;;5032861;28;20028;-56
2023/02/28 00:52:05;;;;;;;16.40;10.63;;;21.40;99.90;;;;;;5032879;28;20052;-56
2023/02/28 00:54:31;;;;;;;18.50;11.75;;;21.40;99.90;;;;;;5032699;28;20025;-56
2023/02/28 00:56:57;;;;;;;15.73;10.85;;;21.40;99.90;;;;;;5014809;28;20108;-55
2023/02/28 00:59:23;;;;;;;16.83;11.45;;;21.40;99.90;;;;;;5033223;28;20464;-56
2023/02/28 01:01:48;;;;;;;17.80;11.63;;;21.30;99.90;;;;;;5032535;28;20038;-55
2023/02/28 01:04:15;;;;;;;17.52;11.02;;;21.30;99.90;;;;;;5032542;28;20022;-56
2023/02/28 01:06:41;;;;;;;17.08;11.18;;;21.30;99.90;;;;;;5032484;28;20113;-55
2023/02/28 01:09:08;;;;;;;16.05;11.02;;;21.30;99.90;;;;;;5032413;28;20033;-56
2023/02/28 01:11:34;;;;;;;16.67;11.07;;;21.30;99.90;;;;;;5032359;28;20057;-56
2023/02/28 01:14:00;;;;;;;19.50;11.13;;;21.30;99.90;;;;;;5032258;28;20029;-56
2023/02/28 01:16:27;;;;;;;17.60;11.00;;;21.30;99.90;;;;;;5014733;28;20044;-56
2023/02/28 01:18:53;;;;;;;16.65;10.93;;;21.20;99.90;;;;;;5032680;28;20060;-57
2023/02/28 01:21:23;;;;;;;16.08;10.45;;;21.20;99.90;;;;;;5032279;28;20045;-57
2023/02/28 01:23:49;;;;;;;14.38;10.02;;;21.20;99.90;;;;;;5032327;28;20434;-56
2023/02/28 01:26:20;;;;;;;17.25;10.70;;;21.20;99.90;;;;;;5032189;28;20360;-56
2023/02/28 01:28:46;;;;;;;15.15;10.27;;;21.20;99.90;;;;;;5014363;28;20329;-57
2023/02/28 01:31:13;;;;;;;17.20;10.93;;;21.20;99.90;;;;;;5032283;28;20076;-53
2023/02/28 01:33:39;;;;;;;16.20;10.00;;;21.10;99.90;;;;;;5032292;28;20025;-53
2023/02/28 01:36:09;;;;;;;15.60;10.43;;;21.10;99.90;;;;;;5032098;28;20029;-54
2023/02/28 01:38:34;;;;;;;14.65;9.25;;;21.20;99.90;;;;;;5032237;28;20022;-56
2023/02/28 01:41:01;;;;;;;18.25;10.10;;;21.10;99.90;;;;;;5032124;28;20141;-56
2023/02/28 01:43:32;;;;;;;14.77;9.40;;;21.10;99.90;;;;;;5032291;28;20602;-56
2023/02/28 01:45:59;;;;;;;21.15;10.75;;;21.10;99.90;;;;;;5035934;28;20029;-57
2023/02/28 01:48:29;;;;;;;16.10;9.68;;;21.10;99.90;;;;;;5036229;28;20544;-57
2023/02/28 01:51:01;;;;;;;13.20;9.25;;;21.10;99.90;;;;;;5036398;28;20025;-57
2023/02/28 01:53:34;;;;;;;13.02;8.77;;;21.00;99.90;;;;;;5018642;28;20033;-57
2023/02/28 01:56:03;;;;;;;15.30;9.77;;;21.00;99.90;;;;;;5036060;28;20029;-55
2023/02/28 01:58:30;;;;;;;14.07;9.55;;;21.00;99.90;;;;;;5036001;28;20026;-56
2023/02/28 02:00:57;;;;;;;13.75;8.73;;;21.00;99.90;;;;;;5036773;28;20041;-55
2023/02/28 02:03:24;;;;;;;20.40;10.52;;;21.00;99.90;;;;;;5036128;28;20053;-56
2023/02/28 02:05:50;;;;;;;11.60;8.35;;;21.00;99.90;;;;;;5036132;28;20053;-55
2023/02/28 02:08:21;;;;;;;14.95;8.63;;;21.00;99.90;;;;;;5035916;28;20103;-55
2023/02/28 02:10:58;;;;;;;14.90;9.32;;;20.90;99.90;;;;;;5018059;28;20026;-55
2023/02/28 02:14:01;;;;;;;12.30;8.70;;;20.90;99.90;;;;;;5036072;28;20486;-55
2023/02/28 02:16:45;;;;;;;14.88;8.43;;;20.90;99.90;;;;;;5035905;28;20471;-55
2023/02/28 02:19:32;;;;;;;15.80;8.98;;;20.90;99.90;;;;;;5035819;28;20026;-56
2023/02/28 02:22:22;;;;;;;14.90;9.55;;;20.90;99.90;;;;;;5035826;28;20028;-55
2023/02/28 02:25:09;;;;;;;15.45;9.40;;;20.90;99.90;;;;;;5035544;28;20040;-56
2023/02/28 02:27:48;;;;;;;11.82;7.10;;;20.80;99.90;;;;;;5035593;28;20514;-56
2023/02/28 02:30:58;;;;;;;11.73;7.93;;;20.80;99.90;;;;;;5035525;28;20037;-56
2023/02/28 02:33:27;;;;;;;13.63;9.30;;;20.80;99.90;;;;;;4955104;29;20039;-56
2023/02/28 02:36:07;;;;;;;12.05;7.88;;;20.80;99.90;;;;;;4955413;29;20492;-56
2023/02/28 02:38:46;;;;;;;12.05;7.90;;;20.80;99.90;;;;;;5003510;28;20398;-56
2023/02/28 02:41:48;;;;;;;13.45;8.20;;;20.80;99.90;;;;;;5034168;28;20033;-56
2023/02/28 02:44:28;;;;;;;11.23;7.57;;;20.70;99.90;;;;;;5032554;28;20554;-55
2023/02/28 02:47:01;;;;;;;14.20;8.70;;;20.80;99.90;;;;;;5034678;28;20029;-55
2023/02/28 02:49:33;;;;;;;11.60;7.95;;;20.70;99.90;;;;;;5035225;28;20036;-56
2023/02/28 02:52:07;;;;;;;14.30;7.95;;;20.70;99.90;;;;;;5035136;28;20022;-56
2023/02/28 02:54:36;;;;;;;10.85;7.32;;;20.70;99.90;;;;;;5035092;28;20025;-55
2023/02/28 02:57:29;;;;;;;12.07;7.60;;;20.70;99.90;;;;;;5033857;28;20057;-54
2023/02/28 02:59:57;;;;;;;11.18;7.20;;;20.70;99.90;;;;;;5050623;23;20158;-48
2023/02/28 03:02:25;;;;;;;11.25;7.70;;;20.70;99.90;;;;;;5034666;28;20026;-48
2023/02/28 03:05:00;;;;;;;11.23;7.63;;;20.60;99.90;;;;;;5016359;28;20482;-48
2023/02/28 03:07:27;;;;;;;10.20;6.90;;;20.60;99.90;;;;;;5034601;28;20025;-50
2023/02/28 03:09:54;;;;;;;10.65;6.50;;;20.60;99.90;;;;;;5034809;28;20057;-49
2023/02/28 03:12:20;;;;;;;10.77;7.32;;;20.60;99.90;;;;;;5034674;28;20394;-49
2023/02/28 03:15:07;;;;;;;11.43;7.05;;;20.60;99.90;;;;;;5034692;28;20025;-49
2023/02/28 03:18:01;;;;;;;9.23;6.20;;;20.60;99.90;;;;;;5034568;28;20421;-48
2023/02/28 03:20:32;;;;;;;12.80;7.53;;;20.50;99.90;;;;;;5034465;28;20044;-49
2023/02/28 03:23:15;;;;;;;18.90;7.22;;;20.60;99.90;;;;;;5034555;28;20111;-49
2023/02/28 03:25:50;;;;;;;9.80;6.40;;;20.60;99.90;;;;;;5034531;28;20037;-49
2023/02/28 03:28:38;;;;;;;10.77;6.55;;;20.50;99.90;;;;;;5034346;28;20068;-49
2023/02/28 03:31:14;;;;;;;11.95;6.57;;;20.50;99.90;;;;;;5016541;28;20079;-49
2023/02/28 03:33:54;;;;;;;9.40;6.25;;;20.50;99.90;;;;;;5034276;28;20025;-49
2023/02/28 03:36:24;;;;;;;10.70;6.88;;;20.50;99.90;;;;;;5034292;28;20017;-49
2023/02/28 03:39:02;;;;;;;11.73;7.30;;;20.50;99.90;;;;;;5016570;28;20387;-49
2023/02/28 03:41:36;;;;;;;9.23;5.68;;;20.40;99.90;;;;;;5034376;28;20021;-49
2023/02/28 03:44:09;;;;;;;8.60;5.93;;;20.40;99.90;;;;;;5017203;28;20063;-49
2023/02/28 03:46:42;;;;;;;11.40;6.93;;;20.40;99.90;;;;;;5033963;28;20503;-49
2023/02/28 03:49:24;;;;;;;10.55;6.03;;;20.40;99.90;;;;;;5034078;28;20140;-49
2023/02/28 03:51:51;;;;;;;9.73;6.07;;;20.40;99.90;;;;;;5034005;28;20112;-49
2023/02/28 03:54:23;;;;;;;10.05;6.22;;;20.40;99.90;;;;;;5033961;28;20441;-49
2023/02/28 03:57:24;;;;;;;8.20;5.28;;;20.30;99.90;;;;;;5033882;28;20029;-49
2023/02/28 03:59:59;;;;;;;11.32;6.57;;;20.30;99.90;;;;;;5018856;23;20148;-54
2023/02/28 04:02:24;;;;;;;9.48;5.80;;;20.30;99.90;;;;;;5033757;28;20040;-57
2023/02/28 04:04:50;;;;;;;10.00;6.05;;;20.30;99.90;;;;;;5033636;28;20017;-55
2023/02/28 04:07:17;;;;;;;10.52;5.88;;;20.30;99.90;;;;;;5033254;28;20525;-55
2023/02/28 04:09:43;;;;;;;8.32;5.50;;;20.30;99.90;;;;;;5033488;28;20033;-55
2023/02/28 04:12:09;;;;;;;10.52;6.40;;;20.30;99.90;;;;;;5033565;28;20483;-54
2023/02/28 04:14:35;;;;;;;8.70;5.35;;;20.20;99.90;;;;;;5033472;28;20060;-55
2023/02/28 04:17:00;;;;;;;9.70;5.70;;;20.20;99.90;;;;;;5033673;28;20024;-55
2023/02/28 04:19:26;;;;;;;8.57;5.10;;;20.20;99.90;;;;;;5033329;28;20063;-55
2023/02/28 04:21:53;;;;;;;7.22;5.13;;;20.20;99.90;;;;;;5033282;28;20424;-56
2023/02/28 04:24:25;;;;;;;9.88;5.30;;;20.20;99.90;;;;;;5015510;28;20103;-54
2023/02/28 04:26:54;;;;;;;10.02;5.70;;;20.20;99.90;;;;;;5033206;28;20025;-55
2023/02/28 04:29:23;;;;;;;8.32;5.43;;;20.20;99.90;;;;;;5015706;28;20029;-55
2023/02/28 04:31:49;;;;;;;8.10;5.38;;;20.20;99.90;;;;;;5033150;28;20036;-55
2023/02/28 04:34:15;;;;;;;7.55;5.15;;;20.10;99.90;;;;;;5033118;28;20026;-56
2023/02/28 04:36:41;;;;;;;10.13;5.22;;;20.10;99.90;;;;;;5033174;28;20060;-55
2023/02/28 04:39:07;;;;;;;9.25;4.97;;;20.10;99.90;;;;;;5015268;28;20029;-55
2023/02/28 04:41:32;;;;;;;9.50;4.97;;;20.10;99.90;;;;;;5033207;28;20056;-54
2023/02/28 04:43:58;;;;;;;7.78;5.03;;;20.10;99.90;;;;;;5032998;28;20033;-55
2023/02/28 04:46:24;;;;;;;6.72;4.65;;;20.10;99.90;;;;;;5032838;28;20029;-55
2023/02/28 04:48:50;;;;;;;7.18;4.82;;;20.00;99.90;;;;;;5029760;28;20037;-54
2023/02/28 04:51:18;;;;;;;8.88;4.55;;;20.00;99.90;;;;;;5032605;28;20072;-55
2023/02/28 04:53:44;;;;;;;6.70;4.63;;;20.00;99.90;;;;;;5033020;28;20032;-55
2023/02/28 04:56:15;;;;;;;8.80;5.05;;;20.00;99.90;;;;;;5031341;28;20021;-55
2023/02/28 04:58:41;;;;;;;8.45;5.20;;;20.00;99.90;;;;;;5010900;28;20186;-56
2023/02/28 05:01:15;;;;;;;8.00;5.30;;;20.00;99.90;;;;;;5012851;28;20108;-56
2023/02/28 05:03:41;;;;;;;7.75;4.85;;;20.00;99.90;;;;;;4993649;28;20117;-55
2023/02/28 05:06:09;;;;;;;7.22;4.63;;;19.90;99.90;;;;;;5020688;28;20389;-56
2023/02/28 05:08:34;;;;;;;8.52;4.63;;;19.90;99.90;;;;;;5031348;28;20033;-55
2023/02/28 05:11:01;;;;;;;7.43;4.07;;;19.90;99.90;;;;;;5030869;28;20092;-56
2023/02/28 05:13:27;;;;;;;10.27;4.75;;;19.90;99.90;;;;;;5031247;28;20053;-55
2023/02/28 05:15:53;;;;;;;6.50;4.72;;;19.90;99.90;;;;;;5015770;28;20056;-55
2023/02/28 05:18:19;;;;;;;6.20;4.13;;;19.90;99.90;;;;;;5012047;28;20022;-55
2023/02/28 05:20:45;;;;;;;6.72;4.25;;;19.90;99.90;;;;;;5011532;28;20017;-56
2023/02/28 05:23:13;;;;;;;7.75;4.70;;;19.90;99.90;;;;;;5013086;28;20531;-55
2023/02/28 05:25:40;;;;;;;6.78;4.45;;;19.90;99.90;;;;;;5011190;28;20053;-55
2023/02/28 05:28:06;;;;;;;7.10;4.40;;;19.80;99.90;;;;;;5011717;28;20097;-54
2023/02/28 05:30:32;;;;;;;6.78;4.38;;;19.80;99.90;;;;;;5012038;28;20419;-55
2023/02/28 05:32:58;;;;;;;7.25;4.68;;;19.80;99.90;;;;;;5018764;28;20036;-55
2023/02/28 05:35:26;;;;;;;8.98;4.95;;;19.80;99.90;;;;;;5031207;28;20443;-55
2023/02/28 05:37:52;;;;;;;6.32;4.15;;;19.80;99.90;;;;;;5030271;28;20048;-55
2023/02/28 05:40:20;;;;;;;7.18;4.43;;;19.70;99.90;;;;;;5030670;28;20025;-54
2023/02/28 05:42:46;;;;;;;6.47;4.53;;;19.80;99.90;;;;;;5011637;28;20064;-55
2023/02/28 05:45:12;;;;;;;8.18;5.05;;;19.70;99.90;;;;;;5031318;28;20022;-55
2023/02/28 05:47:38;;;;;;;7.15;4.10;;;19.70;99.90;;;;;;5032093;28;20087;-54
2023/02/28 05:50:05;;;;;;;7.25;4.43;;;19.70;99.90;;;;;;5032240;28;20045;-55
2023/02/28 05:52:31;;;;;;;6.82;3.78;;;19.70;99.90;;;;;;5031965;28;20025;-54
2023/02/28 05:54:57;;;;;;;7.70;4.00;;;19.70;99.90;;;;;;5031958;28;20025;-54
2023/02/28 05:57:23;;;;;;;7.35;4.20;;;19.60;99.90;;;;;;5031901;28;20125;-55
2023/02/28 05:59:49;;;;;;;5.55;4.07;;;19.70;99.90;;;;;;5031746;28;20547;-55
2023/02/28 06:02:17;;;;;;;6.80;4.55;;;19.60;99.90;;;;;;5029898;28;20105;-54
2023/02/28 06:04:43;;;;;;;7.18;4.22;;;19.60;99.90;;;;;;5031723;28;20536;-54
2023/02/28 06:07:10;;;;;;;6.10;3.63;;;19.60;99.90;;;;;;5032125;28;20037;-54
2023/02/28 06:09:36;;;;;;;6.47;3.92;;;19.60;99.90;;;;;;5014384;28;20116;-55
2023/02/28 06:12:05;;;;;;;6.63;3.55;;;19.60;99.90;;;;;;5013741;28;20544;-54
2023/02/28 06:14:32;;;;;;;5.78;4.00;;;19.60;99.90;;;;;;5031712;28;20471;-54
2023/02/28 06:16:59;;;;;;;7.35;3.75;;;19.50;99.90;;;;;;5031828;28;20498;-55
2023/02/28 06:19:25;;;;;;;5.90;4.00;;;19.50;99.90;;;;;;5031741;28;20029;-55
2023/02/28 06:21:52;;;;;;;6.30;4.15;;;19.50;99.90;;;;;;5031833;28;20105;-55
2023/02/28 06:24:19;;;;;;;6.90;3.75;;;19.50;99.90;;;;;;5031643;28;20029;-55
2023/02/28 06:26:45;;;;;;;8.23;4.13;;;19.50;99.90;;;;;;5031811;28;20083;-55
2023/02/28 06:29:11;;;;;;;5.80;3.88;;;19.50;99.90;;;;;;5031688;28;20038;-54
2023/02/28 06:31:38;;;;;;;6.63;3.97;;;19.50;99.90;;;;;;5035155;28;20550;-55
2023/02/28 06:34:04;;;;;;;6.32;3.58;;;19.50;99.90;;;;;;5035489;28;20438;-55
2023/02/28 06:36:30;;;;;;;6.45;3.92;;;19.50;99.90;;;;;;5035375;28;20037;-56
2023/02/28 06:38:56;;;;;;;5.22;3.70;;;19.40;99.90;;;;;;5017468;28;20037;-55
2023/02/28 06:41:26;;;;;;;4.95;3.30;;;19.40;99.90;;;;;;5035188;28;20040;-55
2023/02/28 06:43:53;;;;;;;4.45;3.13;;;19.40;99.90;;;;;;5017469;28;20529;-56
2023/02/28 06:46:19;;;;;;;5.82;3.70;;;19.40;99.90;;;;;;5035292;28;20546;-55
2023/02/28 06:48:45;;;;;;;7.35;3.65;;;19.40;99.90;;;;;;5035025;28;20029;-55
2023/02/28 06:51:22;;;;;;;7.13;3.92;;;19.40;99.90;;;;;;5035350;28;20045;-55
2023/02/28 06:53:48;;;;;;;5.00;3.47;;;19.40;99.90;;;;;;5035145;28;20034;-55
2023/02/28 06:56:16;;;;;;;5.55;4.00;;;19.30;99.90;;;;;;5035073;28;20463;-56
2023/02/28 06:58:42;;;;;;;4.80;3.45;;;19.30;99.90;;;;;;5035240;28;20148;-53
2023/02/28 07:01:08;;;;;;;5.60;3.60;;;19.30;99.90;;;;;;5034731;28;20045;-53
2023/02/28 07:03:35;;;;;;;5.97;3.60;;;19.30;99.90;;;;;;5034662;28;20034;-53
2023/02/28 07:06:02;;;;;;;3.58;2.65;;;19.30;99.90;;;;;;5016884;28;20029;-52
2023/02/28 07:08:28;;;;;;;4.38;2.72;;;19.30;99.90;;;;;;5034550;28;20044;-54
2023/02/28 07:10:55;;;;;;;5.75;3.42;;;19.30;99.90;;;;;;5034166;28;20371;-54
2023/02/28 07:13:21;;;;;;;6.78;3.45;;;19.30;99.90;;;;;;5034219;28;20513;-55
2023/02/28 07:16:16;;;;;;;4.88;2.90;;;19.30;99.90;;;;;;5034127;28;20032;-55
2023/02/28 07:18:42;;;;;;;5.05;2.78;;;19.20;99.90;;;;;;5012539;28;20490;-55
2023/02/28 07:21:10;;;;;;;4.57;2.45;;;19.30;99.90;;;;;;5033768;28;20041;-55
2023/02/28 07:23:37;;;;;;;4.93;2.83;;;19.30;99.90;;;;;;5031292;28;20028;-55
2023/02/28 07:26:04;;;;;;;5.35;2.40;;;19.30;99.90;;;;;;5016654;28;20577;-54
2023/02/28 07:28:30;;;;;;;4.05;2.28;;;19.30;99.90;;;;;;5033916;28;20041;-51
2023/02/28 07:30:56;;;;;;;3.13;1.85;;;19.20;99.90;;;;;;5033686;28;20044;-54
2023/02/28 07:33:23;;;;;;;4.43;2.10;;;19.20;99.90;;;;;;5033216;28;20452;-55
2023/02/28 07:35:49;;;;;;;3.20;2.13;;;19.30;99.90;;;;;;5033725;28;20041;-54
2023/02/28 07:38:15;;;;;;;4.65;2.50;;;19.30;99.90;;;;;;5034596;28;20072;-54
2023/02/28 07:40:41;;;;;;;3.75;2.20;;;19.30;99.90;;;;;;5034115;28;20033;-54
2023/02/28 07:43:07;;;;;;;7.00;2.38;;;19.30;99.90;;;;;;5014632;28;20076;-55
2023/02/28 07:45:34;;;;;;;10.13;2.63;;;19.30;99.90;;;;;;5033360;28;20034;-56
2023/02/28 07:48:00;;;;;;;5.60;2.58;;;19.30;99.90;;;;;;5015718;28;20030;-54
2023/02/28 07:50:30;;;;;;;3.85;2.30;;;19.30;99.90;;;;;;5032843;28;20387;-53
2023/02/28 07:52:57;;;;;;;5.72;2.17;;;19.40;99.90;;;;;;5031452;28;20021;-53
2023/02/28 07:55:23;;;;;;;6.00;2.05;;;19.40;99.90;;;;;;5033938;28;20482;-53
2023/02/28 07:57:49;;;;;;;8.13;2.88;;;19.40;99.90;;;;;;5033708;28;20072;-54
2023/02/28 08:00:15;;;;;;;8.63;2.60;;;19.40;99.90;;;;;;5015984;28;20046;-53
2023/02/28 08:02:41;;;;;;;3.67;2.30;;;19.40;99.90;;;;;;5033863;28;20033;-52
2023/02/28 08:05:07;;;;;;;6.70;2.38;;;19.50;99.90;;;;;;5033708;28;20026;-53
2023/02/28 08:07:33;;;;;;;4.30;2.67;;;19.50;99.90;;;;;;5014013;28;20035;-51
2023/02/28 08:09:59;;;;;;;6.40;3.33;;;19.50;99.90;;;;;;5019220;28;20506;-53
2023/02/28 08:12:25;;;;;;;3.10;2.17;;;19.50;99.90;;;;;;5029756;28;20426;-53
2023/02/28 08:14:51;;;;;;;6.90;3.33;;;19.50;99.90;;;;;;5031036;28;20506;-53
2023/02/28 08:17:16;;;;;;;4.32;2.15;;;19.50;99.90;;;;;;5031006;28;20033;-53
2023/02/28 08:19:44;;;;;;;4.32;2.30;;;19.50;99.90;;;;;;5013851;28;20026;-52
2023/02/28 08:22:10;;;;;;;;;;;19.60;99.90;;;;;;5031499;28;20391;-55
2023/02/28 08:24:36;;;;;;;5.57;2.45;;;19.60;99.90;;;;;;5033121;28;19905;-55
2023/02/28 08:27:01;;;;;;;6.18;2.60;;;19.60;99.90;;;;;;5031351;28;20084;-55
2023/02/28 08:29:27;;;;;;;3.75;2.42;;;19.60;99.90;;;;;;5014963;28;20037;-55
2023/02/28 08:31:53;;;;;;;6.22;2.65;;;19.60;99.90;;;;;;4999752;28;20472;-54
2023/02/28 08:34:19;;;;;;;6.47;2.10;;;19.60;99.90;;;;;;5012742;28;20392;-55
2023/02/28 08:36:45;;;;;;;3.03;1.90;;;19.70;99.90;;;;;;5023645;28;20033;-54
2023/02/28 08:39:12;;;;;;;5.20;2.33;;;19.70;99.90;;;;;;5032555;28;20036;-55
2023/02/28 08:41:37;;;;;;;8.15;2.90;;;19.70;99.90;;;;;;5031465;28;20029;-55
2023/02/28 08:44:03;;;;;;;5.93;2.58;;;19.70;99.90;;;;;;5032230;28;20075;-54
2023/02/28 08:46:29;;;;;;;4.95;2.80;;;19.70;99.90;;;;;;5031537;28;20084;-53
2023/02/28 08:48:59;;;;;;;5.38;2.80;;;19.80;99.90;;;;;;5031982;28;20068;-53
2023/02/28 08:51:26;;;;;;;3.90;2.40;;;19.70;99.90;;;;;;5031471;28;20071;-52
2023/02/28 08:53:59;;;;;;;5.65;2.50;;;19.70;99.90;;;;;;5031100;28;20026;-54
2023/02/28 08:56:27;;;;;;;3.85;2.60;;;19.70;99.90;;;;;;5031425;28;20431;-54
2023/02/28 08:58:56;;;;;;;3.03;2.15;;;19.80;99.90;;;;;;5032103;28;20083;-55
2023/02/28 09:01:26;;;;;;;5.32;2.58;;;19.80;99.90;;;;;;5031264;28;20044;-54
2023/02/28 09:03:53;;;;;;;5.65;2.55;;;19.80;99.90;;;;;;5014335;28;20521;-54
2023/02/28 09:06:20;;;;;;;4.90;2.78;;;19.80;99.90;;;;;;5031116;28;20028;-53
2023/02/28 09:08:46;;;;;;;5.35;2.40;;;19.80;99.90;;;;;;5031233;28;20037;-55
2023/02/28 09:11:12;;;;;;;4.65;2.90;;;19.90;99.90;;;;;;5031214;28;20099;-55
2023/02/28 09:13:39;;;;;;;5.35;2.95;;;19.90;99.90;;;;;;5030246;28;20065;-54
2023/02/28 09:16:07;;;;;;;5.57;2.50;;;19.90;99.90;;;;;;5031301;28;20021;-53
2023/02/28 09:18:37;;;;;;;4.15;2.50;;;19.90;99.90;;;;;;5032402;28;20100;-53
2023/02/28 09:21:05;;;;;;;4.05;2.63;;;19.90;99.90;;;;;;5032530;28;20017;-53
2023/02/28 09:23:31;;;;;;;;;;;19.90;99.90;;;;;;5015164;28;20097;-53
2023/02/28 09:25:57;;;;;;;4.93;2.40;;;20.00;99.90;;;;;;5013596;28;20000;-54
2023/02/28 09:28:23;;;;;;;6.03;2.78;;;20.00;99.90;;;;;;5032139;28;20048;-55
2023/02/28 09:30:52;;;;;;;3.92;2.40;;;20.00;99.90;;;;;;5014776;28;20044;-55
2023/02/28 09:33:22;;;;;;;5.63;2.60;;;20.00;99.90;;;;;;5032353;28;20026;-55
2023/02/28 09:35:48;;;;;;;5.78;2.80;;;20.00;99.90;;;;;;5032394;28;20547;-56
2023/02/28 09:38:14;;;;;;;5.13;3.30;;;20.00;99.90;;;;;;5032085;28;20026;-55
2023/02/28 09:41:12;;;;;;;5.78;2.88;;;20.00;99.90;;;;;;5032180;28;20091;-55
2023/02/28 09:43:43;;;;;;;5.80;3.20;;;20.00;99.90;;;;;;5031227;28;20479;-54
2023/02/28 09:46:41;;;;;;;6.35;3.50;;;20.10;99.90;;;;;;5014512;28;20040;-55
2023/02/28 09:49:14;;;;;;;7.25;3.55;;;20.10;99.90;;;;;;5031909;28;20061;-55
2023/02/28 09:51:43;;;;;;;6.50;3.53;;;20.10;99.90;;;;;;5031950;28;20022;-55
2023/02/28 09:54:24;;;;;;;8.05;4.22;;;20.10;99.90;;;;;;5031950;28;20022;-56
2023/02/28 09:57:07;;;;;;;7.82;4.68;;;20.10;99.90;;;;;;5032024;28;20100;-52
2023/02/28 09:59:49;;;;;;;8.57;4.15;;;20.10;99.90;;;;;;5013994;28;21263;-53
2023/02/28 10:02:42;;;;;;;10.13;5.25;;;20.10;99.90;;;;;;5031805;28;20482;-53
2023/02/28 10:05:38;;;;;;;9.20;5.13;;;20.20;99.90;;;;;;5032693;28;20521;-54
2023/02/28 10:08:25;;;;;;;8.18;5.15;;;20.20;99.90;;;;;;5028926;28;20095;-53
2023/02/28 10:11:04;;;;;;;9.18;4.70;;;20.20;99.90;;;;;;5036027;28;20532;-52
2023/02/28 10:13:38;;;;;;;10.25;6.05;;;20.30;99.90;;;;;;5036109;28;20383;-55
2023/02/28 10:16:16;;;;;;;10.00;5.78;;;20.30;99.90;;;;;;5035648;28;20035;-55
2023/02/28 10:18:48;;;;;;;10.52;6.43;;;20.30;99.90;;;;;;5017965;28;20033;-53
2023/02/28 10:21:30;;;;;;;9.05;5.95;;;20.30;99.90;;;;;;5035622;28;20048;-55
2023/02/28 10:24:26;;;;;;;9.93;6.00;;;20.40;99.90;;;;;;5035569;28;20021;-55
2023/02/28 10:26:56;;;;;;;12.18;7.05;;;20.40;99.90;;;;;;5018003;28;20080;-55
2023/02/28 10:29:22;;;;;;;11.43;6.05;;;20.40;99.90;;;;;;5035691;28;20044;-54
2023/02/28 10:31:48;;;;;;;12.73;6.30;;;20.50;99.90;;;;;;5035722;28;20519;-54
2023/02/28 10:34:14;;;;;;;9.23;6.18;;;20.50;99.90;;;;;;5035304;28;20033;-54
2023/02/28 10:36:42;;;;;;;11.07;6.35;;;20.50;99.90;;;;;;5035330;28;20067;-54
2023/02/28 10:39:53;;;;;;;10.82;6.88;;;20.50;99.90;;;;;;5035426;28;20021;-54
2023/02/28 10:42:28;;;;;;;12.27;6.28;;;20.50;99.90;;;;;;5013821;28;20025;-53
2023/02/28 10:45:15;;;;;;;9.43;6.18;;;20.50;99.90;;;;;;5035354;28;20018;-54
2023/02/28 10:47:50;;;;;;;;;;;20.50;99.90;;;;;;5035541;28;20131;-55
2023/02/28 10:50:30;;;;;;;8.98;5.65;;;20.60;99.90;;;;;;5035020;28;20352;-55
2023/02/28 10:53:28;;;;;;;9.55;5.82;;;20.50;99.90;;;;;;5035148;28;20071;-53
2023/02/28 10:56:03;;;;;;;9.40;6.03;;;20.50;99.90;;;;;;5024629;28;20113;-54
2023/02/28 10:58:48;;;;;;;10.48;6.30;;;20.50;99.90;;;;;;5034812;28;20028;-54
2023/02/28 11:01:21;;;;;;;8.73;5.47;;;20.60;99.90;;;;;;5034561;28;20049;-53
2023/02/28 11:03:48;;;;;;;10.95;6.20;;;20.50;99.90;;;;;;5034708;28;20029;-53
2023/02/28 11:06:19;;;;;;;10.03;5.83;;;20.50;99.90;;;;;;5034803;28;20021;-52
2023/02/28 11:08:51;;;;;;;8.60;5.90;;;20.50;99.90;;;;;;5034657;28;20025;-53
2023/02/28 11:11:19;;;;;;;10.10;6.22;;;20.50;99.90;;;;;;5034632;28;20032;-53
2023/02/28 11:13:47;;;;;;;10.32;6.57;;;20.50;99.90;;;;;;5017391;28;20026;-54
2023/02/28 11:16:15;;;;;;;10.43;6.70;;;20.50;99.90;;;;;;5034217;28;20497;-53
2023/02/28 11:18:54;;;;;;;10.27;6.82;;;20.50;99.90;;;;;;5034227;28;20040;-54
2023/02/28 11:21:28;;;;;;;13.10;7.25;;;20.50;99.90;;;;;;5034557;28;20364;-55
2023/02/28 11:24:04;;;;;;;13.27;8.60;;;20.50;99.90;;;;;;5034593;28;20028;-54
2023/02/28 11:26:40;;;;;;;10.00;6.90;;;20.50;99.90;;;;;;5034254;28;20072;-54
2023/02/28 11:29:24;;;;;;;13.13;7.95;;;20.60;99.90;;;;;;5034325;28;20029;-54
2023/02/28 11:32:17;;;;;;;13.00;7.82;;;20.60;99.90;;;;;;5034250;28;20080;-53
2023/02/28 11:34:44;;;;;;;13.52;8.00;;;20.60;99.90;;;;;;5016323;28;20029;-54
2023/02/28 11:37:13;;;;;;;11.73;8.05;;;20.60;99.90;;;;;;5034065;28;20025;-54
2023/02/28 11:39:39;;;;;;;13.10;7.57;;;20.60;99.90;;;;;;5034324;28;20053;-54
2023/02/28 11:42:20;;;;;;;13.40;8.25;;;20.70;99.90;;;;;;5034158;28;20025;-53
2023/02/28 11:44:54;;;;;;;15.52;8.68;;;20.70;99.90;;;;;;5034183;28;20029;-55
2023/02/28 11:47:52;;;;;;;14.55;8.40;;;20.70;99.90;;;;;;5033884;28;20021;-53
2023/02/28 11:50:23;;;;;;;;;;;20.70;99.90;;;;;;5003271;28;20589;-52
2023/02/28 11:52:54;;;;;;;13.63;7.57;;;20.80;99.90;;;;;;5033800;28;19959;-54
2023/02/28 11:55:36;;;;;;;14.55;8.95;;;20.80;99.90;;;;;;5031852;28;20033;-52
2023/02/28 11:58:43;;;;;;;11.85;8.18;;;20.80;99.90;;;;;;5032874;28;20029;-55
2023/02/28 12:01:22;;;;;;;11.88;7.10;;;20.80;99.90;;;;;;5015525;28;20126;-55
2023/02/28 12:04:17;;;;;;;13.27;7.90;;;20.90;99.90;;;;;;5033516;28;20048;-55
2023/02/28 12:06:56;;;;;;;13.18;8.50;;;20.90;99.90;;;;;;5011875;28;20045;-54
2023/02/28 12:09:30;;;;;;;12.82;8.18;;;21.00;99.90;;;;;;5033670;28;20040;-54
2023/02/28 12:12:18;;;;;;;14.02;8.15;;;21.00;99.90;;;;;;5033578;28;20018;-54
2023/02/28 12:15:12;;;;;;;13.60;7.93;;;21.00;99.90;;;;;;5033419;28;20025;-53
2023/02/28 12:18:10;;;;;;;12.82;8.43;;;21.00;99.90;;;;;;5033381;28;20363;-54
2023/02/28 12:20:49;;;;;;;11.77;8.20;;;21.10;99.90;;;;;;5010805;28;20509;-53
2023/02/28 12:23:36;;;;;;;13.65;7.65;;;21.10;99.90;;;;;;5033401;28;20204;-53
2023/02/28 12:26:22;;;;;;;10.43;7.13;;;21.10;99.90;;;;;;5033244;28;20104;-55
2023/02/28 12:29:01;;;;;;;12.85;8.00;;;21.10;99.90;;;;;;5032923;28;20120;-54
2023/02/28 12:31:31;;;;;;;11.68;7.93;;;21.20;99.90;;;;;;5015394;28;20021;-54
2023/02/28 12:34:03;;;;;;;16.73;7.70;;;21.20;99.90;;;;;;5015307;28;20021;-54
2023/02/28 12:36:29;;;;;;;11.68;7.05;;;21.20;99.90;;;;;;5033073;28;20037;-54
2023/02/28 12:39:21;;;;;;;11.40;7.32;;;21.20;99.90;;;;;;5032985;28;20109;-54
2023/02/28 12:41:55;;;;;;;10.73;6.72;;;21.20;99.90;;;;;;5031110;28;20483;-54
2023/02/28 12:44:37;;;;;;;11.80;7.00;;;21.30;99.90;;;;;;5032902;28;20060;-54
2023/02/28 12:47:05;;;;;;;12.38;7.43;;;21.20;99.90;;;;;;5032807;28;20025;-53
2023/02/28 12:49:39;;;;;;;11.68;7.95;;;21.30;99.90;;;;;;5032814;28;20040;-54
2023/02/28 12:52:10;;;;;;;11.63;8.05;;;21.30;99.90;;;;;;5032706;28;20024;-54
2023/02/28 12:54:43;;;;;;;12.88;7.47;;;21.30;99.90;;;;;;5032669;28;20052;-53
2023/02/28 12:57:23;;;;;;;12.07;7.53;;;21.30;99.90;;;;;;5032797;28;20071;-54
2023/02/28 12:59:54;;;;;;;12.45;8.07;;;21.30;99.90;;;;;;5032517;28;20120;-55
2023/02/28 13:02:41;;;;;;;13.15;7.40;;;21.30;99.90;;;;;;5032516;28;20428;-54